createdAt,value
2018-12-30T00:00:13.426Z,25.77
2018-12-30T00:03:20.170Z,28.27
2018-12-30T00:09:44.008Z,28.47
2018-12-30T00:12:54.465Z,32.57
2018-12-30T00:15:45.933Z,37.80
2018-12-30T00:18:53.335Z,32.07
2018-12-30T00:24:57.972Z,31.63
2018-12-30T00:28:04.374Z,28.77
2018-12-30T00:30:54.854Z,28.43
2018-12-30T00:34:02.103Z,33.60
2018-12-30T00:40:02.426Z,33.63
2018-12-30T00:43:08.450Z,34.87
2018-12-30T00:46:10.126Z,36.70
2018-12-30T00:49:32.936Z,32.03
2018-12-30T00:52:23.809Z,34.20
2018-12-30T00:58:45.109Z,35.70
2018-12-30T01:01:53.087Z,29.80
2018-12-30T01:04:43.923Z,35.63
2018-12-30T01:08:01.244Z,36.30
2018-12-30T01:14:37.659Z,24.60
2018-12-30T01:27:52.551Z,20.77
2018-12-30T01:30:45.870Z,20.13
2018-12-30T01:53:37.605Z,20.57
2018-12-30T01:57:01.054Z,30.37
2018-12-30T02:00:07.124Z,27.90
2018-12-30T02:03:15.798Z,23.93
2018-12-30T02:06:25.219Z,23.23
2018-12-30T02:12:31.460Z,20.90
2018-12-30T02:15:39.118Z,24.63
2018-12-30T02:21:56.905Z,22.90
2018-12-30T02:24:47.952Z,20.00
2018-12-30T02:31:04.254Z,18.17
2018-12-30T08:36:49.070Z,14.27
2018-12-30T08:39:55.396Z,18.10
2018-12-30T08:42:44.972Z,11.83
2018-12-30T08:49:01.615Z,13.90
2018-12-30T08:52:08.381Z,13.70
2018-12-30T08:54:57.905Z,10.90
2018-12-30T08:58:20.767Z,10.10
2018-12-30T09:01:10.584Z,12.60
2018-12-30T09:07:47.489Z,10.20
2018-12-30T09:10:55.279Z,10.20
2018-12-30T09:14:01.660Z,8.07
2018-12-30T09:17:06.357Z,12.33
2018-12-30T09:19:54.892Z,13.37
2018-12-30T09:22:59.520Z,11.80
2018-12-30T09:25:48.782Z,11.60
2018-12-30T09:28:53.791Z,15.53
2018-12-30T09:31:41.762Z,17.13
2018-12-30T09:34:46.565Z,14.67
2018-12-30T09:37:34.770Z,14.97
2018-12-30T09:40:40.530Z,11.80
2018-12-30T09:43:28.338Z,24.47
2018-12-30T09:46:33.364Z,20.57
2018-12-30T09:49:21.370Z,25.47
2018-12-30T09:52:26.110Z,13.30
2018-12-30T09:55:14.436Z,8.47
2018-12-30T09:58:19.514Z,23.17
2018-12-30T10:01:08.788Z,9.27
2018-12-30T10:04:14.471Z,10.87
2018-12-30T10:07:02.246Z,11.07
2018-12-30T10:10:07.142Z,10.47
2018-12-30T10:12:55.577Z,15.57
2018-12-30T10:16:00.593Z,13.97
2018-12-30T10:18:48.280Z,14.23
2018-12-30T10:21:55.925Z,14.20
2018-12-30T10:24:44.072Z,15.63
2018-12-30T10:27:49.597Z,17.23
2018-12-30T10:30:37.798Z,13.97
2018-12-30T10:33:45.091Z,14.20
2018-12-30T10:36:33.506Z,12.57
2018-12-30T10:39:37.914Z,14.27
2018-12-30T10:42:25.773Z,13.67
2018-12-30T10:45:30.541Z,15.00
2018-12-30T10:51:22.898Z,16.30
2018-12-30T10:54:27.757Z,16.03
2018-12-30T10:57:15.685Z,18.53
2018-12-30T11:00:20.471Z,14.10
2018-12-30T11:03:08.344Z,14.23
2018-12-30T11:06:13.123Z,19.43
2018-12-30T11:09:00.867Z,14.40
2018-12-30T11:12:05.874Z,13.13
2018-12-30T11:14:53.397Z,14.20
2018-12-30T11:17:57.775Z,12.93
2018-12-30T11:20:45.734Z,12.10
2018-12-30T11:23:50.502Z,13.97
2018-12-30T11:26:38.428Z,11.13
2018-12-30T11:29:43.123Z,11.10
2018-12-30T11:32:31.206Z,11.80
2018-12-30T11:35:36.108Z,11.57
2018-12-30T11:38:24.280Z,11.00
2018-12-30T11:41:28.907Z,11.07
2018-12-30T11:44:16.815Z,13.40
2018-12-30T11:47:21.718Z,14.63
2018-12-30T11:50:09.771Z,11.23
2018-12-30T11:53:14.802Z,7.33
2018-12-30T11:56:02.752Z,7.80
2018-12-30T11:59:09.046Z,5.23
2018-12-30T12:01:57.359Z,15.60
2018-12-30T12:05:03.441Z,5.80
2018-12-30T12:07:51.413Z,6.50
2018-12-30T12:10:56.164Z,7.00
2018-12-30T12:13:44.164Z,8.30
2018-12-30T12:16:48.654Z,5.63
2018-12-30T12:19:36.761Z,9.40
2018-12-30T12:22:41.459Z,6.43
2018-12-30T12:25:29.614Z,6.57
2018-12-30T12:28:35.574Z,6.43
2018-12-30T12:31:23.705Z,8.23
2018-12-30T12:34:28.253Z,6.80
2018-12-30T12:40:17.407Z,4.93
2018-12-30T12:43:22.323Z,7.03
2018-12-30T12:46:10.341Z,9.67
2018-12-30T12:49:15.171Z,7.13
2018-12-30T12:52:03.226Z,10.90
2018-12-30T12:55:09.387Z,12.57
2018-12-30T12:57:57.331Z,9.27
2018-12-30T13:01:01.792Z,9.20
2018-12-30T13:03:51.388Z,10.00
2018-12-30T13:06:57.281Z,7.37
2018-12-30T13:09:46.381Z,8.97
2018-12-30T13:12:51.895Z,11.37
2018-12-30T13:15:40.083Z,12.07
2018-12-30T13:18:44.486Z,10.00
2018-12-30T13:21:32.594Z,15.47
2018-12-30T13:24:40.060Z,8.73
2018-12-30T13:27:27.385Z,9.30
2018-12-30T13:30:32.183Z,7.90
2018-12-30T13:33:20.287Z,9.00
2018-12-30T13:36:24.897Z,10.17
2018-12-30T13:39:13.114Z,10.00
2018-12-30T13:42:17.756Z,10.07
2018-12-30T13:45:06.355Z,8.07
2018-12-30T13:48:11.046Z,7.03
2018-12-30T13:50:59.155Z,5.17
2018-12-30T13:54:03.736Z,6.30
2018-12-30T13:56:52.037Z,7.63
2018-12-30T13:59:58.270Z,10.83
2018-12-30T14:02:46.108Z,11.80
2018-12-30T14:05:50.634Z,11.13
2018-12-30T14:08:38.773Z,11.80
2018-12-30T14:11:43.952Z,11.97
2018-12-30T14:14:32.000Z,10.80
2018-12-30T14:17:38.135Z,8.70
2018-12-30T14:20:26.305Z,13.27
2018-12-30T14:23:30.804Z,16.23
2018-12-30T14:26:18.618Z,16.53
2018-12-30T14:29:24.497Z,18.17
2018-12-30T14:32:12.313Z,19.93
2018-12-30T14:35:19.860Z,163.43
2018-12-30T14:38:07.696Z,82.70
2018-12-30T14:41:12.426Z,65.63
2018-12-30T14:44:00.603Z,31.97
2018-12-30T14:47:05.780Z,20.80
2018-12-30T14:49:53.787Z,21.17
2018-12-30T14:52:58.307Z,26.23
2018-12-30T14:55:46.294Z,28.00
2018-12-30T14:58:50.871Z,30.13
2018-12-30T15:01:38.793Z,38.27
2018-12-30T15:04:43.657Z,27.27
2018-12-30T15:07:31.432Z,31.17
2018-12-30T15:10:37.259Z,37.57
2018-12-30T15:13:25.590Z,38.60
2018-12-30T15:16:33.452Z,39.07
2018-12-30T15:19:21.693Z,24.23
2018-12-30T15:22:26.105Z,24.53
2018-12-30T15:25:14.247Z,20.57
2018-12-30T15:28:18.991Z,14.50
2018-12-30T15:31:08.209Z,15.23
2018-12-30T15:34:14.060Z,13.37
2018-12-30T15:37:03.296Z,13.70
2018-12-30T15:40:08.899Z,12.40
2018-12-30T15:42:56.705Z,15.17
2018-12-30T15:46:02.552Z,14.57
2018-12-30T15:51:57.989Z,13.90
2018-12-30T15:55:02.410Z,14.87
2018-12-30T15:57:50.338Z,14.93
2018-12-30T16:00:54.906Z,14.27
2018-12-30T16:03:42.739Z,20.33
2018-12-30T16:06:47.199Z,37.20
2018-12-30T16:09:35.148Z,29.53
2018-12-30T16:12:40.070Z,29.13
2018-12-30T16:15:28.007Z,25.73
2018-12-30T16:18:32.455Z,22.80
2018-12-30T16:21:20.538Z,20.53
2018-12-30T16:24:25.663Z,22.50
2018-12-30T16:27:13.838Z,27.97
2018-12-30T16:33:33.067Z,26.93
2018-12-30T16:36:37.398Z,23.77
2018-12-30T16:39:25.265Z,28.33
2018-12-30T16:42:30.421Z,26.07
2018-12-30T16:45:35.003Z,29.10
2018-12-30T16:48:24.383Z,30.73
2018-12-30T16:51:30.619Z,29.17
2018-12-30T16:54:22.894Z,31.90
2018-12-30T16:57:27.598Z,30.73
2018-12-30T17:00:16.857Z,34.73
2018-12-30T17:03:22.691Z,33.30
2018-12-30T17:06:10.886Z,36.67
2018-12-30T17:09:15.676Z,43.23
2018-12-30T17:12:09.623Z,53.93
2018-12-30T17:15:17.642Z,47.70
2018-12-30T17:18:22.098Z,53.60
2018-12-30T17:21:10.299Z,50.97
2018-12-30T17:24:15.208Z,45.87
2018-12-30T17:27:03.362Z,46.30
2018-12-30T17:30:08.202Z,45.60
2018-12-30T17:32:56.359Z,44.27
2018-12-30T17:36:01.110Z,75.03
2018-12-30T17:38:49.263Z,66.57
2018-12-30T17:41:54.019Z,60.80
2018-12-30T17:44:41.911Z,51.70
2018-12-30T17:47:46.353Z,43.57
2018-12-30T17:50:34.288Z,47.60
2018-12-30T17:53:39.896Z,50.77
2018-12-30T17:56:29.293Z,38.00
2018-12-30T17:59:36.795Z,40.47
2018-12-30T18:05:29.580Z,50.00
2018-12-30T18:08:35.553Z,39.93
2018-12-30T18:11:23.572Z,41.73
2018-12-30T18:14:30.838Z,46.93
2018-12-30T18:17:18.989Z,33.70
2018-12-30T18:20:25.076Z,23.60
2018-12-30T18:23:14.263Z,24.47
2018-12-30T18:26:20.312Z,24.90
2018-12-30T18:29:34.143Z,25.37
2018-12-30T18:32:23.655Z,30.30
2018-12-30T18:35:31.339Z,30.63
2018-12-30T18:38:19.535Z,31.97
2018-12-30T18:41:24.666Z,31.07
2018-12-30T18:44:12.504Z,31.30
2018-12-30T18:47:17.205Z,27.40
2018-12-30T18:50:05.533Z,24.00
2018-12-30T18:53:10.299Z,25.50
2018-12-30T18:56:15.325Z,20.77
2018-12-30T18:59:03.315Z,23.83
2018-12-30T19:02:07.751Z,23.07
2018-12-30T19:04:56.793Z,27.43
2018-12-30T19:08:01.571Z,29.23
2018-12-30T19:10:50.842Z,24.00
2018-12-30T19:13:55.651Z,24.50
2018-12-30T19:16:44.495Z,28.73
2018-12-30T19:19:50.464Z,27.17
2018-12-30T19:22:41.259Z,27.30
2018-12-30T19:25:46.014Z,30.53
2018-12-30T19:28:34.171Z,34.70
2018-12-30T19:31:42.530Z,30.50
2018-12-30T19:34:30.625Z,27.80
2018-12-30T19:37:35.066Z,28.73
2018-12-30T19:40:23.302Z,30.77
2018-12-30T19:43:31.161Z,31.50
2018-12-30T19:46:19.232Z,31.20
2018-12-30T19:49:25.255Z,33.50
2018-12-30T19:52:13.382Z,34.73
2018-12-30T19:55:17.962Z,31.73
2018-12-30T19:58:10.362Z,44.00
2018-12-30T20:01:14.982Z,78.17
2018-12-30T20:04:02.883Z,75.83
2018-12-30T20:07:08.897Z,107.77
2018-12-30T20:09:57.327Z,74.40
2018-12-30T20:13:08.748Z,72.77
2018-12-30T20:15:52.198Z,70.73
2018-12-30T20:18:56.927Z,54.20
2018-12-30T20:21:44.813Z,40.70
2018-12-30T20:24:50.899Z,41.77
2018-12-30T20:27:39.017Z,42.47
2018-12-30T20:33:46.377Z,44.60
2018-12-30T20:37:05.679Z,50.33
2018-12-30T20:39:53.817Z,44.47
2018-12-30T20:42:58.709Z,42.80
2018-12-30T20:45:47.094Z,44.57
2018-12-30T20:48:52.854Z,39.47
2018-12-30T20:51:42.140Z,45.23
2018-12-30T20:54:46.805Z,53.03
2018-12-30T20:57:34.621Z,49.07
2018-12-30T21:00:42.288Z,45.73
2018-12-30T21:03:30.561Z,49.60
2018-12-30T21:06:35.140Z,56.30
2018-12-30T21:09:23.091Z,50.60
2018-12-30T21:12:28.020Z,39.87
2018-12-30T21:15:15.888Z,40.77
2018-12-30T21:18:22.337Z,49.73
2018-12-30T21:21:10.257Z,39.57
2018-12-30T21:24:14.622Z,32.13
2018-12-30T21:27:04.051Z,36.47
2018-12-30T21:30:08.504Z,38.23
2018-12-30T21:32:56.553Z,36.57
2018-12-30T21:36:02.617Z,34.03
2018-12-30T21:38:53.615Z,35.47
2018-12-30T21:44:59.259Z,36.17
2018-12-30T21:47:30.561Z,35.67
2018-12-30T21:49:59.043Z,34.57
2018-12-30T21:52:27.658Z,37.20
2018-12-30T21:54:56.308Z,39.87
2018-12-30T21:57:24.979Z,35.67
2018-12-30T21:59:53.613Z,31.47
2018-12-30T22:02:22.298Z,27.70
2018-12-30T22:04:53.822Z,27.33
2018-12-30T22:07:22.451Z,34.60
2018-12-30T22:09:51.069Z,32.33
2018-12-30T22:12:19.710Z,35.13
2018-12-30T22:14:48.304Z,40.00
2018-12-30T22:17:19.947Z,37.40
2018-12-30T22:19:48.552Z,37.93
2018-12-30T22:22:17.113Z,36.57
2018-12-30T22:24:45.683Z,38.03
2018-12-30T22:27:14.371Z,41.70
2018-12-30T22:29:45.736Z,34.57
2018-12-30T22:32:14.276Z,33.23
2018-12-30T22:34:45.909Z,36.73
2018-12-30T22:37:14.505Z,35.93
2018-12-30T22:39:43.125Z,36.17
2018-12-30T22:42:15.578Z,32.07
2018-12-30T22:44:44.142Z,31.07
2018-12-30T22:47:12.707Z,37.20
2018-12-30T22:49:41.374Z,33.97
2018-12-30T22:52:09.924Z,36.70
2018-12-30T22:54:38.493Z,35.27
2018-12-30T22:57:07.112Z,34.90
2018-12-30T22:59:35.615Z,34.43
2018-12-30T23:02:04.245Z,32.23
2018-12-30T23:04:32.847Z,39.40
2018-12-30T23:07:01.523Z,37.73
2018-12-30T23:09:30.019Z,36.13
2018-12-30T23:11:58.572Z,50.87
2018-12-30T23:14:27.189Z,48.80
2018-12-30T23:16:55.821Z,43.23
2018-12-30T23:19:24.427Z,40.80
2018-12-30T23:21:52.916Z,42.00
2018-12-30T23:24:21.599Z,43.63
2018-12-30T23:26:50.277Z,45.50
2018-12-30T23:29:18.893Z,50.87
2018-12-30T23:31:47.514Z,53.17
2018-12-30T23:34:16.120Z,43.70
2018-12-30T23:36:44.686Z,44.87
2018-12-30T23:39:13.250Z,48.37
2018-12-30T23:41:41.837Z,49.83
2018-12-30T23:44:10.514Z,51.20
2018-12-30T23:46:39.053Z,51.27
2018-12-30T23:49:07.597Z,50.23
2018-12-30T23:51:36.276Z,48.67
2018-12-30T23:54:04.819Z,49.53
2018-12-30T23:56:33.296Z,51.10
2018-12-30T23:59:02.077Z,55.47
